Pagina principale
METAR-TAF:

METAR-TAF

Aeroporti :

Base aerea di Sigonella

Sigonella, Italia

latitudine: 37-24N, longitudine: 014-55E, altezza: 22 m

Osservazione

Il bollettino è stato emesso 21 minuti fa, alle 01:55 UTC
Vento 5 kt da nord-ovest
Temperature 20°C
Umidità 94%
Pressione 1018 hPa
Visibilità 10 km o più
Poco nuvoloso ad un'altezza di 10000 ft

METAR: LICZ 160155Z 31005KT 9999 FEW100 20/19 Q1018 RMK OVC OVC180 VIS MIN 9999 WIND THR28 32004KT WIND THR10 32005KT A3008 BLU

Ora: 04:16 (02:16 UTC)

Previsione

Il bollettino è stato emesso 3 ore e 16 minuti fa, alle 23:00 UTC
Previsione valida dal 16 alle 00 UTC al 16 alle 09 UTC
Vento 9 kt da ovest
Visibilità 10 km o più
Nuvoloso ad un'altezza di 5000 ft
Probabilità 30% :
Temporaneamente
dal 16 alle 00 UTC al 16 alle 03 UTC
Visibilità: 5000 m
rovesci di pioggia

TAF: LICZ 152300Z 1600/1609 26009KT 9999 BKN050 PROB30 TEMPO 1600/1603 5000 SHRA

Osservazioni e previsioni meteorologiche di più di 4000 aeroporti (messaggi METAR e TAF).

Le stazioni disponibili sono rappresentate dai dischi gialli e rossi sulla carta.

Puntare il mouse per vedere il nome della stazione.

Clicca sopra per visualizzare le osservazioni e previsioni meteorologiche.

Per cambiare la mappa : fare clic sui pulsanti verdi con una croce nera per ingrandire, il pulsante verde con un trattino per diminuire, o sulla freccia verde per le mappe adiacenti.


METAR-TAF: